createdAt,value
2023-01-12T00:00:27.334Z,22.25
2023-01-12T00:01:32.202Z,24.85
2023-01-12T00:02:37.597Z,23.35
2023-01-12T00:03:40.188Z,22.42
2023-01-12T00:04:42.882Z,22.30
2023-01-12T00:05:45.244Z,21.27
2023-01-12T00:06:48.908Z,23.15
2023-01-12T00:07:51.406Z,22.95
2023-01-12T00:08:54.122Z,21.95
2023-01-12T00:09:56.721Z,22.20
2023-01-12T00:10:59.283Z,22.08
2023-01-12T00:12:07.530Z,22.75
2023-01-12T00:13:10.931Z,22.15
2023-01-12T00:14:13.591Z,21.27
2023-01-12T00:15:16.214Z,19.92
2023-01-12T00:16:39.803Z,21.85
2023-01-12T00:17:42.561Z,19.40
2023-01-12T00:18:47.096Z,19.05
2023-01-12T00:19:51.609Z,21.23
2023-01-12T00:20:54.265Z,21.65
2023-01-12T00:21:59.490Z,21.52
2023-01-12T00:23:02.025Z,22.13
2023-01-12T00:24:07.318Z,22.23
2023-01-12T00:25:09.984Z,21.50
2023-01-12T00:26:12.983Z,21.95
2023-01-12T00:27:20.316Z,23.17
2023-01-12T00:28:25.588Z,23.23
2023-01-12T00:29:29.224Z,22.58
2023-01-12T00:30:31.977Z,22.40
2023-01-12T00:31:34.457Z,20.98
2023-01-12T00:32:36.947Z,19.27
2023-01-12T00:33:40.541Z,21.48
2023-01-12T00:34:43.708Z,21.50
2023-01-12T00:35:46.397Z,20.48
2023-01-12T00:36:49.094Z,20.65
2023-01-12T00:37:51.696Z,22.20
2023-01-12T00:38:54.458Z,20.75
2023-01-12T00:40:02.644Z,21.13
2023-01-12T00:41:07.095Z,21.35
2023-01-12T00:43:49.511Z,18.45
2023-01-12T00:45:10.763Z,19.90
2023-01-12T00:46:13.359Z,18.38
2023-01-12T00:47:16.917Z,19.52
2023-01-12T00:48:19.666Z,21.90
2023-01-12T00:49:22.588Z,21.48
2023-01-12T00:50:25.167Z,20.40
2023-01-12T00:51:27.704Z,20.45
2023-01-12T00:52:31.616Z,22.30
2023-01-12T00:53:34.282Z,22.67
2023-01-12T00:54:36.904Z,20.90
2023-01-12T00:55:39.867Z,21.92
2023-01-12T00:56:43.022Z,21.70
2023-01-12T00:57:45.555Z,22.23
2023-01-12T00:58:48.287Z,22.63
2023-01-12T00:59:55.479Z,21.45
2023-01-12T01:01:08.805Z,21.40
2023-01-12T01:02:14.903Z,20.83
2023-01-12T01:03:17.705Z,21.23
2023-01-12T01:04:20.511Z,21.45
2023-01-12T01:05:23.207Z,22.92
2023-01-12T01:06:26.411Z,21.63
2023-01-12T01:07:29.146Z,22.02
2023-01-12T01:08:32.809Z,22.42
2023-01-12T01:09:35.316Z,23.13
2023-01-12T01:10:37.772Z,23.10
2023-01-12T01:11:40.895Z,22.88
2023-01-12T01:12:43.438Z,24.10
2023-01-12T01:13:46.026Z,23.02
2023-01-12T01:14:48.932Z,23.00
2023-01-12T01:15:51.413Z,23.77
2023-01-12T01:16:53.863Z,24.02
2023-01-12T01:17:56.269Z,24.92
2023-01-12T01:18:59.696Z,23.63
2023-01-12T01:20:02.324Z,23.08
2023-01-12T01:21:05.724Z,22.42
2023-01-12T01:22:08.255Z,22.58
2023-01-12T01:23:10.785Z,22.92
2023-01-12T01:24:17.109Z,23.27
2023-01-12T01:25:19.717Z,23.25
2023-01-12T01:26:23.750Z,22.60
2023-01-12T01:27:26.273Z,22.17
2023-01-12T01:28:28.928Z,23.73
2023-01-12T01:29:31.596Z,24.42
2023-01-12T01:30:34.221Z,24.02
2023-01-12T01:31:37.345Z,23.98
2023-01-12T01:32:40.075Z,24.55
2023-01-12T01:33:43.433Z,23.92
2023-01-12T01:34:47.411Z,21.98
2023-01-12T01:35:49.897Z,22.15
2023-01-12T01:36:52.446Z,22.85
2023-01-12T01:37:55.249Z,22.45
2023-01-12T01:38:58.066Z,22.60
2023-01-12T01:40:00.543Z,23.80
2023-01-12T01:41:04.332Z,22.83
2023-01-12T01:42:26.741Z,24.40
2023-01-12T01:43:47.844Z,22.10
2023-01-12T01:44:53.867Z,23.30
2023-01-12T01:46:12.213Z,23.27
2023-01-12T01:47:35.246Z,22.67
2023-01-12T01:48:40.040Z,22.50
2023-01-12T01:49:48.327Z,22.05
2023-01-12T01:50:57.849Z,21.88
2023-01-12T01:52:18.729Z,21.40
2023-01-12T01:53:24.809Z,21.58
2023-01-12T01:54:33.884Z,21.63
2023-01-12T01:55:48.677Z,22.20
2023-01-12T01:56:56.247Z,21.50
2023-01-12T01:58:03.003Z,21.45
2023-01-12T01:59:15.187Z,20.23
2023-01-12T02:00:20.347Z,20.83
2023-01-12T02:01:23.079Z,21.70
2023-01-12T02:02:27.339Z,21.85
2023-01-12T02:04:35.794Z,19.27
2023-01-12T02:05:41.900Z,22.95
2023-01-12T02:06:44.440Z,22.73
2023-01-12T02:07:48.824Z,21.45
2023-01-12T02:08:56.615Z,22.75
2023-01-12T02:09:59.140Z,22.63
2023-01-12T02:11:25.903Z,22.48
2023-01-12T02:12:47.206Z,22.60
2023-01-12T02:14:08.469Z,22.75
2023-01-12T02:15:30.147Z,22.55
2023-01-12T02:16:34.617Z,20.98
2023-01-12T02:18:11.520Z,22.55
2023-01-12T02:19:35.672Z,20.10
2023-01-12T02:20:38.071Z,20.35
2023-01-12T02:22:14.663Z,22.33
2023-01-12T02:23:23.024Z,20.63
2023-01-12T02:24:37.785Z,20.65
2023-01-12T02:25:51.976Z,19.17
2023-01-12T02:27:26.878Z,20.58
2023-01-12T02:28:55.289Z,20.73
2023-01-12T02:30:25.517Z,19.10
2023-01-12T02:31:39.660Z,19.75
2023-01-12T02:32:48.293Z,19.48
2023-01-12T02:34:09.583Z,18.90
2023-01-12T02:35:28.715Z,18.75
2023-01-12T02:37:03.069Z,19.58
2023-01-12T02:38:35.087Z,20.90
2023-01-12T02:39:50.716Z,20.33
2023-01-12T02:41:18.622Z,19.83
2023-01-12T02:42:43.254Z,20.90
2023-01-12T02:43:46.459Z,19.45
2023-01-12T02:44:53.307Z,20.55
2023-01-12T02:46:23.557Z,22.25
2023-01-12T02:48:05.133Z,21.65
2023-01-12T02:49:13.515Z,21.27
2023-01-12T02:50:24.482Z,20.58
2023-01-12T02:51:32.337Z,21.20
2023-01-12T02:52:35.324Z,21.55
2023-01-12T02:53:44.965Z,21.90
2023-01-12T02:54:49.452Z,22.17
2023-01-12T02:55:53.064Z,23.17
2023-01-12T02:57:02.977Z,23.77
2023-01-12T02:58:08.788Z,22.65
2023-01-12T02:59:35.213Z,22.70
2023-01-12T03:00:39.464Z,20.33
2023-01-12T03:01:45.209Z,21.15
2023-01-12T03:02:48.613Z,22.23
2023-01-12T03:03:53.316Z,20.40
2023-01-12T03:04:55.970Z,21.42
2023-01-12T03:05:59.902Z,21.20
2023-01-12T03:08:06.096Z,18.30
2023-01-12T03:09:10.392Z,21.52
2023-01-12T03:10:21.102Z,22.38
2023-01-12T03:12:32.033Z,19.88
2023-01-12T03:13:37.504Z,20.77
2023-01-12T03:14:44.658Z,20.42
2023-01-12T03:15:54.003Z,21.55
2023-01-12T03:16:57.398Z,21.35
2023-01-12T03:18:37.577Z,21.58
2023-01-12T03:19:43.837Z,21.35
2023-01-12T03:20:53.369Z,21.42
2023-01-12T03:21:59.810Z,23.85
2023-01-12T03:23:11.763Z,23.17
2023-01-12T03:24:36.321Z,22.20
2023-01-12T03:25:42.176Z,21.75
2023-01-12T03:26:49.325Z,21.67
2023-01-12T03:27:55.871Z,22.35
2023-01-12T03:29:10.558Z,21.77
2023-01-12T03:30:17.019Z,23.67
2023-01-12T03:31:20.367Z,24.10
2023-01-12T03:32:23.551Z,25.88
2023-01-12T03:33:26.815Z,24.48
2023-01-12T03:34:29.358Z,25.15
2023-01-12T03:35:37.951Z,26.23
2023-01-12T03:36:54.605Z,25.77
2023-01-12T03:38:24.879Z,25.27
2023-01-12T03:39:58.506Z,24.60
2023-01-12T03:41:07.081Z,24.50
2023-01-12T03:42:14.344Z,25.75
2023-01-12T03:43:22.546Z,26.02
2023-01-12T03:44:46.664Z,27.27
2023-01-12T03:45:55.311Z,26.02
2023-01-12T03:47:07.611Z,26.33
2023-01-12T03:48:36.926Z,26.63
2023-01-12T03:49:51.222Z,25.10
2023-01-12T03:51:00.143Z,26.17
2023-01-12T03:52:08.324Z,28.45
2023-01-12T03:53:13.738Z,27.67
2023-01-12T03:54:18.529Z,25.55
2023-01-12T03:55:23.503Z,25.88
2023-01-12T03:56:29.895Z,26.00
2023-01-12T03:57:32.890Z,26.52
2023-01-12T03:58:36.314Z,28.23
2023-01-12T03:59:39.413Z,26.75
2023-01-12T04:00:42.129Z,27.75
2023-01-12T04:01:44.924Z,25.33
2023-01-12T04:02:47.621Z,27.27
2023-01-12T04:03:50.211Z,24.55
2023-01-12T04:04:52.883Z,24.98
2023-01-12T04:05:55.440Z,24.77
2023-01-12T04:06:59.871Z,23.50
2023-01-12T04:08:05.301Z,25.17
2023-01-12T04:09:08.250Z,25.23
2023-01-12T04:10:11.243Z,24.92
2023-01-12T04:11:33.578Z,24.10
2023-01-12T04:12:36.223Z,25.35
2023-01-12T04:13:38.792Z,24.42
2023-01-12T04:14:47.812Z,24.75
2023-01-12T04:15:50.658Z,23.65
2023-01-12T04:16:53.458Z,24.38
2023-01-12T04:17:56.411Z,25.88
2023-01-12T04:18:59.082Z,26.00
2023-01-12T04:20:01.758Z,24.13
2023-01-12T04:21:04.769Z,24.15
2023-01-12T04:22:26.950Z,24.38
2023-01-12T04:23:29.505Z,24.83
2023-01-12T04:24:32.005Z,23.13
2023-01-12T04:25:34.829Z,24.75
2023-01-12T04:26:37.765Z,23.40
2023-01-12T04:27:50.701Z,24.38
2023-01-12T04:28:54.289Z,22.90
2023-01-12T04:29:57.030Z,23.27
2023-01-12T04:30:59.567Z,24.98
2023-01-12T04:32:02.608Z,24.98
2023-01-12T04:33:09.523Z,24.00
2023-01-12T04:34:12.205Z,23.80
2023-01-12T04:35:16.575Z,23.38
2023-01-12T04:36:20.071Z,23.23
2023-01-12T04:37:22.821Z,23.67
2023-01-12T04:38:26.107Z,24.13
2023-01-12T04:39:29.369Z,24.20
2023-01-12T04:40:32.043Z,25.25
2023-01-12T04:41:34.956Z,25.13
2023-01-12T04:42:56.748Z,25.10
2023-01-12T04:43:59.480Z,24.75
2023-01-12T04:45:01.974Z,26.35
2023-01-12T04:46:10.800Z,26.70
2023-01-12T04:47:13.291Z,27.05
2023-01-12T04:48:16.733Z,24.85
2023-01-12T04:49:19.391Z,25.52
2023-01-12T04:50:22.237Z,25.58
2023-01-12T04:51:25.574Z,27.05
2023-01-12T04:52:28.203Z,26.50
2023-01-12T04:53:30.858Z,29.33
2023-01-12T04:54:33.443Z,27.95
2023-01-12T04:55:37.465Z,35.50
2023-01-12T04:56:40.235Z,38.53
2023-01-12T04:57:43.151Z,36.60
2023-01-12T04:58:45.870Z,33.85
2023-01-12T04:59:48.527Z,34.60
2023-01-12T05:00:51.361Z,29.05
2023-01-12T05:01:54.015Z,29.23
2023-01-12T05:03:03.814Z,29.02
2023-01-12T05:04:09.412Z,28.80
2023-01-12T05:05:12.310Z,30.63
2023-01-12T05:06:14.981Z,30.80
2023-01-12T05:07:18.381Z,29.48
2023-01-12T05:08:39.520Z,28.95
2023-01-12T05:10:00.590Z,30.23
2023-01-12T05:11:03.400Z,27.75
2023-01-12T05:12:06.162Z,29.05
2023-01-12T05:13:08.858Z,31.00
2023-01-12T05:14:11.349Z,29.52
2023-01-12T05:15:14.042Z,33.13
2023-01-12T05:16:18.867Z,37.15
2023-01-12T05:17:22.338Z,34.08
2023-01-12T05:18:27.181Z,32.97
2023-01-12T05:19:30.296Z,32.28
2023-01-12T05:20:32.999Z,30.83
2023-01-12T05:21:35.584Z,31.50
2023-01-12T05:22:38.209Z,30.42
2023-01-12T05:23:40.893Z,30.63
2023-01-12T05:24:43.697Z,31.02
2023-01-12T05:25:46.330Z,30.25
2023-01-12T05:26:48.922Z,30.42
2023-01-12T05:27:55.620Z,30.63
2023-01-12T05:28:58.584Z,31.13
2023-01-12T05:30:01.271Z,31.77
2023-01-12T05:31:07.047Z,31.75
2023-01-12T05:32:10.523Z,33.83
2023-01-12T05:33:16.707Z,36.45
2023-01-12T05:34:20.067Z,34.08
2023-01-12T05:35:23.239Z,31.40
2023-01-12T05:36:26.678Z,33.03
2023-01-12T05:37:29.313Z,30.52
2023-01-12T05:38:31.921Z,31.55
2023-01-12T05:39:34.770Z,28.58
2023-01-12T05:40:37.444Z,30.10
2023-01-12T05:42:00.307Z,29.50
2023-01-12T05:43:21.275Z,28.02
2023-01-12T05:44:23.919Z,28.65
2023-01-12T05:45:26.576Z,28.73
2023-01-12T05:46:40.345Z,29.60
2023-01-12T05:47:42.951Z,30.90
2023-01-12T05:48:45.932Z,33.05
2023-01-12T05:49:48.849Z,30.13
2023-01-12T05:50:51.533Z,32.08
2023-01-12T05:51:54.054Z,31.63
2023-01-12T05:52:57.164Z,34.08
2023-01-12T05:53:59.670Z,37.78
2023-01-12T05:55:02.286Z,32.22
2023-01-12T05:56:16.281Z,36.67
2023-01-12T05:57:18.757Z,34.63
2023-01-12T05:58:21.367Z,36.35
2023-01-12T05:59:24.089Z,34.40
2023-01-12T06:00:26.753Z,34.92
2023-01-12T06:01:29.835Z,33.95
2023-01-12T06:02:32.583Z,34.63
2023-01-12T06:03:36.177Z,34.38
2023-01-12T06:04:39.395Z,33.80
2023-01-12T06:05:43.184Z,34.83
2023-01-12T06:06:46.751Z,34.20
2023-01-12T06:07:49.555Z,34.83
2023-01-12T06:08:52.843Z,35.30
2023-01-12T06:09:55.757Z,33.00
2023-01-12T06:11:04.549Z,34.75
2023-01-12T06:12:28.185Z,34.80
2023-01-12T06:13:54.033Z,34.28
2023-01-12T06:14:56.807Z,30.95
2023-01-12T06:16:09.445Z,33.42
2023-01-12T06:17:12.566Z,33.38
2023-01-12T06:18:17.520Z,34.13
2023-01-12T06:19:20.114Z,34.05
2023-01-12T06:20:22.836Z,32.55
2023-01-12T06:21:26.063Z,34.72
2023-01-12T06:22:28.609Z,34.40
2023-01-12T06:23:35.651Z,34.92
2023-01-12T06:24:38.423Z,33.90
2023-01-12T06:25:40.994Z,33.20
2023-01-12T06:26:45.407Z,33.83
2023-01-12T06:28:50.818Z,31.80
2023-01-12T06:29:53.425Z,35.97
2023-01-12T06:31:01.505Z,31.42
2023-01-12T06:32:04.368Z,30.13
2023-01-12T06:33:06.862Z,29.70
2023-01-12T06:34:09.863Z,28.45
2023-01-12T06:35:19.129Z,30.00
2023-01-12T06:36:24.637Z,30.35
2023-01-12T06:37:27.217Z,30.50
2023-01-12T06:38:32.125Z,33.05
2023-01-12T06:39:35.113Z,34.53
2023-01-12T06:40:39.595Z,35.20
2023-01-12T06:42:00.717Z,36.40
2023-01-12T06:43:03.332Z,34.15
2023-01-12T06:44:07.918Z,33.58
2023-01-12T06:45:11.262Z,36.65
2023-01-12T06:46:39.039Z,34.58
2023-01-12T06:47:46.160Z,32.80
2023-01-12T06:48:48.853Z,32.95
2023-01-12T06:49:52.165Z,33.97
2023-01-12T06:51:01.665Z,35.38
2023-01-12T06:52:04.690Z,37.10
2023-01-12T06:53:07.408Z,35.63
2023-01-12T06:54:19.077Z,35.97
2023-01-12T06:55:22.200Z,33.63
2023-01-12T06:56:24.789Z,34.70
2023-01-12T06:57:28.232Z,34.22
2023-01-12T06:58:38.660Z,31.35
2023-01-12T06:59:42.359Z,31.33
2023-01-12T07:00:45.173Z,31.13
2023-01-12T07:01:51.116Z,30.05
2023-01-12T07:02:54.867Z,36.70
2023-01-12T07:03:59.859Z,32.97
2023-01-12T07:05:02.639Z,33.53
2023-01-12T07:06:05.343Z,33.35
2023-01-12T07:07:09.816Z,34.42
2023-01-12T07:08:19.420Z,33.22
2023-01-12T07:09:27.752Z,48.20
2023-01-12T07:10:33.407Z,51.47
2023-01-12T07:11:35.938Z,51.13
2023-01-12T07:12:38.816Z,45.45
2023-01-12T07:13:41.711Z,46.85
2023-01-12T07:14:44.460Z,42.47
2023-01-12T07:15:54.600Z,43.33
2023-01-12T07:16:57.263Z,42.15
2023-01-12T07:17:59.888Z,40.58
2023-01-12T07:19:04.806Z,41.42
2023-01-12T07:20:07.614Z,39.85
2023-01-12T07:21:22.637Z,40.33
2023-01-12T07:22:26.826Z,40.72
2023-01-12T07:23:35.729Z,36.53
2023-01-12T07:24:38.377Z,32.20
2023-01-12T07:25:55.345Z,35.35
2023-01-12T07:27:06.722Z,36.60
2023-01-12T07:28:16.495Z,37.00
2023-01-12T07:29:22.040Z,35.10
2023-01-12T07:30:27.398Z,42.30
2023-01-12T07:31:44.734Z,39.03
2023-01-12T07:32:48.261Z,38.78
2023-01-12T07:33:54.143Z,40.72
2023-01-12T07:35:01.545Z,41.70
2023-01-12T07:36:09.782Z,40.78
2023-01-12T07:37:13.213Z,40.10
2023-01-12T07:38:18.159Z,42.72
2023-01-12T07:39:20.834Z,41.58
2023-01-12T07:40:23.643Z,39.70
2023-01-12T07:41:44.667Z,39.15
2023-01-12T07:42:56.024Z,36.67
2023-01-12T07:44:01.342Z,36.30
2023-01-12T07:45:05.272Z,35.45
2023-01-12T07:46:15.469Z,36.00
2023-01-12T07:47:18.053Z,35.22
2023-01-12T07:48:27.230Z,33.42
2023-01-12T07:49:32.568Z,36.80
2023-01-12T07:50:37.175Z,38.30
2023-01-12T07:51:40.162Z,35.97
2023-01-12T07:52:46.402Z,37.38
2023-01-12T07:53:51.083Z,36.88
2023-01-12T07:54:55.071Z,37.20
2023-01-12T07:56:00.216Z,36.17
2023-01-12T07:57:03.025Z,39.53
2023-01-12T07:58:09.097Z,39.20
2023-01-12T07:59:12.139Z,40.30
2023-01-12T08:00:15.662Z,39.78
2023-01-12T08:01:22.303Z,39.38
2023-01-12T08:02:26.007Z,38.55
2023-01-12T08:03:28.569Z,42.22
2023-01-12T08:04:31.220Z,43.20
2023-01-12T08:05:35.059Z,45.05
2023-01-12T08:06:38.249Z,41.85
2023-01-12T08:07:40.753Z,43.40
2023-01-12T08:08:43.587Z,41.15
2023-01-12T08:09:50.130Z,45.40
2023-01-12T08:10:55.035Z,41.55
2023-01-12T08:11:57.655Z,39.67
2023-01-12T08:13:00.203Z,38.20
2023-01-12T08:14:05.724Z,36.03
2023-01-12T08:15:12.456Z,33.20
2023-01-12T08:16:21.036Z,32.88
2023-01-12T08:17:24.429Z,33.92
2023-01-12T08:18:35.895Z,33.95
2023-01-12T08:19:44.959Z,33.00
2023-01-12T08:20:49.101Z,29.05
2023-01-12T08:22:00.002Z,30.30
2023-01-12T08:23:28.162Z,31.13
2023-01-12T08:24:37.046Z,30.52
2023-01-12T08:25:45.072Z,31.10
2023-01-12T08:26:51.462Z,31.17
2023-01-12T08:28:00.439Z,31.77
2023-01-12T08:29:30.269Z,29.98
2023-01-12T08:30:33.369Z,28.17
2023-01-12T08:31:39.438Z,27.23
2023-01-12T08:32:51.356Z,26.80
2023-01-12T08:34:06.398Z,27.67
2023-01-12T08:35:10.145Z,26.58
2023-01-12T08:36:19.229Z,27.65
2023-01-12T08:37:25.774Z,28.73
2023-01-12T08:38:30.825Z,28.33
2023-01-12T08:39:35.486Z,29.33
2023-01-12T08:40:59.807Z,28.63
2023-01-12T08:42:07.378Z,28.15
2023-01-12T08:43:12.024Z,29.52
2023-01-12T08:44:15.592Z,29.08
2023-01-12T08:45:21.860Z,29.75
2023-01-12T08:46:24.538Z,27.77
2023-01-12T08:47:30.553Z,29.80
2023-01-12T08:48:33.766Z,30.90
2023-01-12T08:49:36.630Z,30.77
2023-01-12T08:50:43.712Z,28.95
2023-01-12T08:51:46.647Z,28.20
2023-01-12T08:52:59.719Z,28.30
2023-01-12T08:54:03.135Z,29.63
2023-01-12T08:55:11.346Z,30.60
2023-01-12T08:56:13.940Z,28.92
2023-01-12T08:57:17.441Z,31.35
2023-01-12T08:58:23.020Z,40.78
2023-01-12T08:59:26.715Z,38.38
2023-01-12T09:00:29.429Z,39.40
2023-01-12T09:01:32.633Z,32.20
2023-01-12T09:02:35.937Z,31.98
2023-01-12T09:03:41.830Z,29.05
2023-01-12T09:04:49.821Z,30.38
2023-01-12T09:05:54.432Z,31.33
2023-01-12T09:06:59.948Z,30.30
2023-01-12T09:08:08.823Z,30.40
2023-01-12T09:09:17.510Z,30.33
2023-01-12T09:10:25.212Z,29.90
2023-01-12T09:11:32.880Z,30.08
2023-01-12T09:12:35.532Z,32.67
2023-01-12T09:13:47.401Z,30.55
2023-01-12T09:14:53.034Z,29.67
2023-01-12T09:16:12.339Z,30.73
2023-01-12T09:17:18.206Z,31.00
2023-01-12T09:18:24.592Z,30.73
2023-01-12T09:19:33.165Z,30.17
2023-01-12T09:20:36.998Z,31.85
2023-01-12T09:21:47.143Z,29.88
2023-01-12T09:22:50.572Z,30.90
2023-01-12T09:23:59.658Z,29.52
2023-01-12T09:25:10.901Z,30.25
2023-01-12T09:26:17.490Z,30.92
2023-01-12T09:27:25.815Z,29.65
2023-01-12T09:28:32.161Z,31.02
2023-01-12T09:29:46.863Z,28.65
2023-01-12T09:31:00.582Z,28.10
2023-01-12T09:32:06.030Z,28.13
2023-01-12T09:33:08.812Z,29.08
2023-01-12T09:34:11.912Z,28.52
2023-01-12T09:35:20.134Z,28.75
2023-01-12T09:36:25.475Z,30.15
2023-01-12T09:37:28.756Z,28.90
2023-01-12T09:38:31.908Z,31.20
2023-01-12T09:39:34.574Z,30.55
2023-01-12T09:40:37.688Z,28.60
2023-01-12T09:42:06.290Z,30.83
2023-01-12T09:43:34.006Z,30.27
2023-01-12T09:44:59.573Z,32.50
2023-01-12T09:46:20.797Z,33.53
2023-01-12T09:47:48.825Z,27.35
2023-01-12T09:48:51.795Z,30.05
2023-01-12T09:50:22.755Z,28.33
2023-01-12T09:51:34.543Z,27.42
2023-01-12T09:53:05.595Z,31.90
2023-01-12T09:54:36.328Z,31.95
2023-01-12T09:57:40.663Z,25.48
2023-01-12T09:59:02.780Z,27.83
2023-01-12T10:00:16.453Z,26.38
2023-01-12T10:01:30.175Z,32.38
2023-01-12T10:02:37.861Z,32.35
2023-01-12T10:03:49.520Z,30.70
2023-01-12T10:05:00.862Z,27.63
2023-01-12T10:06:09.061Z,28.60
2023-01-12T10:07:17.051Z,36.83
2023-01-12T10:08:31.653Z,48.63
2023-01-12T10:09:38.017Z,49.70
2023-01-12T10:10:47.208Z,48.38
2023-01-12T10:12:14.151Z,32.80
2023-01-12T10:13:17.564Z,33.20
2023-01-12T10:14:37.590Z,32.15
2023-01-12T10:16:04.046Z,31.88
2023-01-12T10:17:10.416Z,30.35
2023-01-12T10:18:40.536Z,29.55
2023-01-12T10:20:07.448Z,27.98
2023-01-12T10:21:11.433Z,26.10
2023-01-12T10:22:48.004Z,26.48
2023-01-12T10:23:55.990Z,27.50
2023-01-12T10:25:01.482Z,29.20
2023-01-12T10:26:23.540Z,27.33
2023-01-12T10:27:26.766Z,25.85
2023-01-12T10:28:37.455Z,27.90
2023-01-12T10:29:49.933Z,27.35
2023-01-12T10:30:56.286Z,28.00
2023-01-12T10:31:59.233Z,30.00
2023-01-12T10:33:31.258Z,30.67
2023-01-12T10:34:51.456Z,28.88
2023-01-12T10:35:59.915Z,29.52
2023-01-12T10:37:09.332Z,27.58
2023-01-12T10:38:39.515Z,25.60
2023-01-12T10:39:44.867Z,28.95
2023-01-12T10:41:14.919Z,27.17
2023-01-12T10:42:42.393Z,29.00
2023-01-12T10:44:12.582Z,25.80
2023-01-12T10:45:21.190Z,25.48
2023-01-12T10:46:27.719Z,23.42
2023-01-12T10:47:33.861Z,26.17
2023-01-12T10:48:38.997Z,22.35
2023-01-12T10:49:41.483Z,25.33
2023-01-12T10:50:59.765Z,25.75
2023-01-12T10:52:38.833Z,25.27
2023-01-12T10:53:45.791Z,26.50
2023-01-12T10:54:59.064Z,26.15
2023-01-12T10:56:31.280Z,27.45
2023-01-12T10:57:44.123Z,24.70
2023-01-12T10:59:07.997Z,24.77
2023-01-12T11:00:21.744Z,24.77
2023-01-12T11:01:24.444Z,26.60
2023-01-12T11:02:29.572Z,28.58
2023-01-12T11:03:37.671Z,26.98
2023-01-12T11:04:45.335Z,27.35
2023-01-12T11:05:48.008Z,26.60
2023-01-12T11:07:05.461Z,25.98
2023-01-12T11:08:27.222Z,27.02
2023-01-12T11:09:31.845Z,24.00
2023-01-12T11:10:36.814Z,26.95
2023-01-12T11:11:39.237Z,28.38
2023-01-12T11:12:41.724Z,25.30
2023-01-12T11:13:44.697Z,25.88
2023-01-12T11:15:05.324Z,24.88
2023-01-12T11:16:22.246Z,24.10
2023-01-12T11:17:36.784Z,24.13
2023-01-12T11:19:01.153Z,25.50
2023-01-12T11:20:07.194Z,25.35
2023-01-12T11:21:15.388Z,24.40
2023-01-12T11:22:27.732Z,26.55
2023-01-12T11:29:28.720Z,22.52
2023-01-12T11:30:46.157Z,23.08
2023-01-12T11:31:54.732Z,23.27
2023-01-12T11:33:15.698Z,20.35
2023-01-12T11:34:22.755Z,22.05
2023-01-12T11:35:41.314Z,21.60
2023-01-12T11:37:11.134Z,22.38
2023-01-12T11:38:23.041Z,24.13
2023-01-12T11:39:28.000Z,26.02
2023-01-12T11:40:33.409Z,26.45
2023-01-12T11:42:16.415Z,25.00
2023-01-12T11:43:43.371Z,22.63
2023-01-12T11:45:10.041Z,24.27
2023-01-12T11:46:25.086Z,24.00
2023-01-12T11:47:32.391Z,24.30
2023-01-12T11:48:46.377Z,22.80
2023-01-12T11:50:00.655Z,25.73
2023-01-12T11:51:03.526Z,23.83
2023-01-12T11:52:10.436Z,25.55
2023-01-12T11:53:22.256Z,25.52
2023-01-12T11:54:30.339Z,24.17
2023-01-12T11:56:06.522Z,24.58
2023-01-12T11:57:28.588Z,23.83
2023-01-12T11:58:46.668Z,26.88
2023-01-12T12:00:22.044Z,23.92
2023-01-12T12:01:50.902Z,22.67
2023-01-12T12:03:07.073Z,24.30
2023-01-12T12:04:53.039Z,23.50
2023-01-12T12:06:25.947Z,23.08
2023-01-12T12:07:41.475Z,22.10
2023-01-12T12:09:10.825Z,22.48
2023-01-12T12:10:53.603Z,22.77
2023-01-12T12:12:00.890Z,21.40
2023-01-12T12:13:29.801Z,22.80
2023-01-12T12:15:03.221Z,23.83
2023-01-12T12:16:35.666Z,22.00
2023-01-12T12:17:50.830Z,20.92
2023-01-12T12:19:04.029Z,21.95
2023-01-12T12:20:27.290Z,23.38
2023-01-12T12:21:44.857Z,23.45
2023-01-12T12:23:04.879Z,22.95
2023-01-12T12:24:25.243Z,24.45
2023-01-12T12:26:11.149Z,28.88
2023-01-12T12:27:21.935Z,23.95
2023-01-12T12:28:40.248Z,23.83
2023-01-12T12:30:20.709Z,24.38
2023-01-12T12:31:40.397Z,26.70
2023-01-12T12:32:51.593Z,27.13
2023-01-12T12:34:03.114Z,28.05
2023-01-12T12:35:21.796Z,26.67
2023-01-12T12:37:04.152Z,25.10
2023-01-12T12:38:24.640Z,27.63
2023-01-12T12:39:42.999Z,25.83
2023-01-12T12:41:33.149Z,25.33
2023-01-12T12:43:48.335Z,25.48
2023-01-12T12:45:17.185Z,24.17
2023-01-12T12:46:55.862Z,23.40
2023-01-12T12:48:21.587Z,24.80
2023-01-12T12:49:30.247Z,25.80
2023-01-12T12:50:41.864Z,25.33
2023-01-12T12:51:46.116Z,25.63
2023-01-12T12:53:11.892Z,27.60
2023-01-12T12:54:20.710Z,25.55
2023-01-12T12:55:23.524Z,25.40
2023-01-12T12:56:29.951Z,26.25
2023-01-12T12:58:00.686Z,27.92
2023-01-12T12:59:03.890Z,26.00
2023-01-12T13:00:40.569Z,29.75
2023-01-12T13:01:55.627Z,30.42
2023-01-12T13:02:58.952Z,31.85
2023-01-12T13:04:03.991Z,29.40
2023-01-12T13:05:08.863Z,29.40
2023-01-12T13:06:15.342Z,29.90
2023-01-12T13:07:21.580Z,28.48
2023-01-12T13:08:34.230Z,31.27
2023-01-12T13:09:39.185Z,32.42
2023-01-12T13:10:49.578Z,40.40
2023-01-12T13:12:09.229Z,35.10
2023-01-12T13:13:33.042Z,31.25
2023-01-12T13:14:41.174Z,27.50
2023-01-12T13:15:43.913Z,28.30
2023-01-12T13:16:52.005Z,28.45
2023-01-12T13:17:55.827Z,25.17
2023-01-12T13:18:58.367Z,27.63
2023-01-12T13:20:16.821Z,26.90
2023-01-12T13:21:27.064Z,24.65
2023-01-12T13:22:35.188Z,25.73
2023-01-12T13:23:50.707Z,27.13
2023-01-12T13:24:54.270Z,26.50
2023-01-12T13:25:57.865Z,26.98
2023-01-12T13:27:02.033Z,26.33
2023-01-12T13:28:04.488Z,28.05
2023-01-12T13:29:42.005Z,25.70
2023-01-12T13:30:55.751Z,25.42
2023-01-12T13:33:28.593Z,23.65
2023-01-12T13:34:37.309Z,22.15
2023-01-12T13:35:40.677Z,23.15
2023-01-12T13:36:43.475Z,23.20
2023-01-12T13:37:58.418Z,24.98
2023-01-12T13:39:07.194Z,23.75
2023-01-12T13:40:20.940Z,24.58
2023-01-12T13:41:46.431Z,23.80
2023-01-12T13:43:09.418Z,24.88
2023-01-12T13:44:20.022Z,24.42
2023-01-12T13:45:24.117Z,23.40
2023-01-12T13:47:33.424Z,23.08
2023-01-12T13:48:37.347Z,24.40
2023-01-12T13:50:00.765Z,25.92
2023-01-12T13:51:12.942Z,34.45
2023-01-12T13:52:29.358Z,26.20
2023-01-12T13:53:32.497Z,25.25
2023-01-12T13:54:35.197Z,33.75
2023-01-12T13:55:39.158Z,33.47
2023-01-12T13:56:42.588Z,32.53
2023-01-12T13:57:57.046Z,35.55
2023-01-12T13:59:04.745Z,32.60
2023-01-12T14:00:22.274Z,35.72
2023-01-12T14:01:30.364Z,46.67
2023-01-12T14:02:33.180Z,51.15
2023-01-12T14:03:47.851Z,50.00
2023-01-12T14:05:00.503Z,40.85
2023-01-12T14:06:12.772Z,37.20
2023-01-12T14:07:16.117Z,33.17
2023-01-12T14:09:17.861Z,33.00
2023-01-12T14:10:31.906Z,28.70
2023-01-12T14:12:05.034Z,27.65
2023-01-12T14:13:32.337Z,35.67
2023-01-12T14:15:11.562Z,34.58
2023-01-12T14:16:36.477Z,33.85
2023-01-12T14:17:57.961Z,35.15
2023-01-12T14:19:01.239Z,31.20
2023-01-12T14:20:13.307Z,30.63
2023-01-12T14:21:38.000Z,30.42
2023-01-12T14:22:40.479Z,27.88
2023-01-12T14:23:42.762Z,25.20
2023-01-12T14:24:45.384Z,28.45
2023-01-12T14:26:02.587Z,26.05
2023-01-12T14:27:16.278Z,24.80
2023-01-12T14:28:22.520Z,25.55
2023-01-12T14:29:24.977Z,26.55
2023-01-12T14:30:28.792Z,28.17
2023-01-12T14:31:40.619Z,28.23
2023-01-12T14:32:48.535Z,29.98
2023-01-12T14:33:53.877Z,29.58
2023-01-12T14:34:56.572Z,30.33
2023-01-12T14:36:06.010Z,31.15
2023-01-12T14:37:28.593Z,30.63
2023-01-12T14:38:34.376Z,28.10
2023-01-12T14:39:41.453Z,26.85
2023-01-12T14:41:05.367Z,27.70
2023-01-12T14:42:35.995Z,24.95
2023-01-12T14:43:57.084Z,25.90
2023-01-12T14:45:17.987Z,27.05
2023-01-12T14:46:28.710Z,23.85
2023-01-12T14:47:34.973Z,23.92
2023-01-12T14:48:43.336Z,24.55
2023-01-12T14:49:46.405Z,26.10
2023-01-12T14:51:08.783Z,23.90
2023-01-12T14:52:17.092Z,25.13
2023-01-12T14:53:32.378Z,25.00
2023-01-12T14:54:35.160Z,24.63
2023-01-12T14:55:40.393Z,24.98
2023-01-12T14:56:59.437Z,25.58
2023-01-12T14:58:05.507Z,25.50
2023-01-12T14:59:15.019Z,25.48
2023-01-12T15:00:29.753Z,25.45
2023-01-12T15:01:38.144Z,26.05
2023-01-12T15:02:41.696Z,26.13
2023-01-12T15:03:48.599Z,26.13
2023-01-12T15:04:56.839Z,25.52
2023-01-12T15:05:59.568Z,25.98
2023-01-12T15:07:05.534Z,36.65
2023-01-12T15:08:08.824Z,43.03
2023-01-12T15:09:32.425Z,42.40
2023-01-12T15:10:41.053Z,32.42
2023-01-12T15:11:43.476Z,31.90
2023-01-12T15:12:54.604Z,41.55